sensor_id;sensor_type;location;lat;lon;timestamp;P1;durP1;ratioP1;P2;durP2;ratioP2
5428;SDS011;2737;52.386;9.980;2022-12-16T00:00:28;22.17;;;10.10;;
5428;SDS011;2737;52.386;9.980;2022-12-16T00:02:58;25.17;;;10.93;;
5428;SDS011;2737;52.386;9.980;2022-12-16T00:05:26;27.67;;;10.60;;
5428;SDS011;2737;52.386;9.980;2022-12-16T00:07:54;23.60;;;10.10;;
5428;SDS011;2737;52.386;9.980;2022-12-16T00:10:21;22.40;;;9.90;;
5428;SDS011;2737;52.386;9.980;2022-12-16T00:12:48;19.97;;;9.80;;
5428;SDS011;2737;52.386;9.980;2022-12-16T00:15:18;28.50;;;11.23;;
5428;SDS011;2737;52.386;9.980;2022-12-16T00:17:45;23.97;;;9.83;;
5428;SDS011;2737;52.386;9.980;2022-12-16T00:20:13;21.50;;;10.20;;
5428;SDS011;2737;52.386;9.980;2022-12-16T00:22:40;22.10;;;10.00;;
5428;SDS011;2737;52.386;9.980;2022-12-16T00:25:07;24.93;;;11.13;;
5428;SDS011;2737;52.386;9.980;2022-12-16T00:27:35;26.27;;;11.20;;
5428;SDS011;2737;52.386;9.980;2022-12-16T00:30:02;19.53;;;10.10;;
5428;SDS011;2737;52.386;9.980;2022-12-16T00:32:29;20.47;;;10.30;;
5428;SDS011;2737;52.386;9.980;2022-12-16T00:34:56;24.30;;;10.37;;
5428;SDS011;2737;52.386;9.980;2022-12-16T00:37:24;24.60;;;11.13;;
5428;SDS011;2737;52.386;9.980;2022-12-16T00:39:52;26.77;;;10.90;;
5428;SDS011;2737;52.386;9.980;2022-12-16T00:42:19;20.37;;;10.20;;
5428;SDS011;2737;52.386;9.980;2022-12-16T00:44:46;34.10;;;13.57;;
5428;SDS011;2737;52.386;9.980;2022-12-16T00:47:13;28.50;;;12.63;;
5428;SDS011;2737;52.386;9.980;2022-12-16T00:49:40;33.50;;;13.63;;
5428;SDS011;2737;52.386;9.980;2022-12-16T00:52:07;34.30;;;13.83;;
5428;SDS011;2737;52.386;9.980;2022-12-16T00:54:35;31.57;;;14.80;;
5428;SDS011;2737;52.386;9.980;2022-12-16T00:57:02;40.77;;;16.30;;
5428;SDS011;2737;52.386;9.980;2022-12-16T00:59:29;39.97;;;17.00;;
5428;SDS011;2737;52.386;9.980;2022-12-16T01:01:56;35.90;;;15.90;;
5428;SDS011;2737;52.386;9.980;2022-12-16T01:04:23;37.60;;;16.00;;
5428;SDS011;2737;52.386;9.980;2022-12-16T01:06:51;28.03;;;12.27;;
5428;SDS011;2737;52.386;9.980;2022-12-16T01:09:18;37.40;;;14.83;;
5428;SDS011;2737;52.386;9.980;2022-12-16T01:11:47;29.63;;;13.80;;
5428;SDS011;2737;52.386;9.980;2022-12-16T01:14:14;34.60;;;13.33;;
5428;SDS011;2737;52.386;9.980;2022-12-16T01:16:42;26.80;;;11.60;;
5428;SDS011;2737;52.386;9.980;2022-12-16T01:19:09;33.03;;;13.33;;
5428;SDS011;2737;52.386;9.980;2022-12-16T01:21:37;26.10;;;12.13;;
5428;SDS011;2737;52.386;9.980;2022-12-16T01:24:04;25.97;;;12.23;;
5428;SDS011;2737;52.386;9.980;2022-12-16T01:26:31;30.37;;;12.70;;
5428;SDS011;2737;52.386;9.980;2022-12-16T01:29:00;25.20;;;11.70;;
5428;SDS011;2737;52.386;9.980;2022-12-16T01:31:27;30.70;;;11.40;;
5428;SDS011;2737;52.386;9.980;2022-12-16T01:33:54;35.00;;;12.93;;
5428;SDS011;2737;52.386;9.980;2022-12-16T01:36:21;27.67;;;11.37;;
5428;SDS011;2737;52.386;9.980;2022-12-16T01:38:48;35.83;;;12.83;;
5428;SDS011;2737;52.386;9.980;2022-12-16T01:41:16;24.90;;;11.63;;
5428;SDS011;2737;52.386;9.980;2022-12-16T01:43:43;27.83;;;11.90;;
5428;SDS011;2737;52.386;9.980;2022-12-16T01:46:14;28.03;;;12.10;;
5428;SDS011;2737;52.386;9.980;2022-12-16T01:48:46;25.30;;;11.03;;
5428;SDS011;2737;52.386;9.980;2022-12-16T01:51:17;29.70;;;11.60;;
5428;SDS011;2737;52.386;9.980;2022-12-16T01:53:50;28.30;;;11.30;;
5428;SDS011;2737;52.386;9.980;2022-12-16T01:56:21;26.60;;;11.20;;
5428;SDS011;2737;52.386;9.980;2022-12-16T01:58:50;26.10;;;11.40;;
5428;SDS011;2737;52.386;9.980;2022-12-16T02:01:21;31.67;;;11.80;;
5428;SDS011;2737;52.386;9.980;2022-12-16T02:03:48;30.70;;;10.77;;
5428;SDS011;2737;52.386;9.980;2022-12-16T02:06:17;19.87;;;9.73;;
5428;SDS011;2737;52.386;9.980;2022-12-16T02:08:45;26.40;;;10.50;;
5428;SDS011;2737;52.386;9.980;2022-12-16T02:11:19;25.30;;;12.17;;
5428;SDS011;2737;52.386;9.980;2022-12-16T02:14:09;22.63;;;11.23;;
5428;SDS011;2737;52.386;9.980;2022-12-16T02:16:56;27.93;;;9.83;;
5428;SDS011;2737;52.386;9.980;2022-12-16T02:19:40;24.37;;;11.20;;
5428;SDS011;2737;52.386;9.980;2022-12-16T02:22:32;27.00;;;11.43;;
5428;SDS011;2737;52.386;9.980;2022-12-16T02:25:36;26.10;;;11.23;;
5428;SDS011;2737;52.386;9.980;2022-12-16T02:28:33;22.33;;;10.33;;
5428;SDS011;2737;52.386;9.980;2022-12-16T02:31:19;32.20;;;10.57;;
5428;SDS011;2737;52.386;9.980;2022-12-16T02:33:56;23.57;;;10.97;;
5428;SDS011;2737;52.386;9.980;2022-12-16T02:36:34;22.00;;;10.53;;
5428;SDS011;2737;52.386;9.980;2022-12-16T02:39:11;25.73;;;10.27;;
5428;SDS011;2737;52.386;9.980;2022-12-16T02:41:41;20.67;;;10.10;;
5428;SDS011;2737;52.386;9.980;2022-12-16T02:44:15;21.87;;;9.77;;
5428;SDS011;2737;52.386;9.980;2022-12-16T02:46:50;22.77;;;10.13;;
5428;SDS011;2737;52.386;9.980;2022-12-16T02:52:14;25.40;;;9.80;;
5428;SDS011;2737;52.386;9.980;2022-12-16T02:54:43;26.73;;;10.30;;
5428;SDS011;2737;52.386;9.980;2022-12-16T02:57:15;23.97;;;9.67;;
5428;SDS011;2737;52.386;9.980;2022-12-16T02:59:58;21.50;;;9.80;;
5428;SDS011;2737;52.386;9.980;2022-12-16T03:02:32;19.20;;;9.57;;
5428;SDS011;2737;52.386;9.980;2022-12-16T03:05:08;19.13;;;9.40;;
5428;SDS011;2737;52.386;9.980;2022-12-16T03:07:39;26.23;;;10.80;;
5428;SDS011;2737;52.386;9.980;2022-12-16T03:10:10;19.47;;;9.40;;
5428;SDS011;2737;52.386;9.980;2022-12-16T03:12:40;20.00;;;9.80;;
5428;SDS011;2737;52.386;9.980;2022-12-16T03:15:10;22.93;;;10.67;;
5428;SDS011;2737;52.386;9.980;2022-12-16T03:17:42;20.27;;;8.60;;
5428;SDS011;2737;52.386;9.980;2022-12-16T03:20:13;21.47;;;10.07;;
5428;SDS011;2737;52.386;9.980;2022-12-16T03:22:43;20.07;;;9.27;;
5428;SDS011;2737;52.386;9.980;2022-12-16T03:25:14;20.90;;;9.60;;
5428;SDS011;2737;52.386;9.980;2022-12-16T03:27:43;21.70;;;10.37;;
5428;SDS011;2737;52.386;9.980;2022-12-16T03:30:16;29.53;;;9.00;;
5428;SDS011;2737;52.386;9.980;2022-12-16T03:32:50;20.70;;;8.97;;
5428;SDS011;2737;52.386;9.980;2022-12-16T03:35:24;23.50;;;10.50;;
5428;SDS011;2737;52.386;9.980;2022-12-16T03:37:54;27.60;;;9.43;;
5428;SDS011;2737;52.386;9.980;2022-12-16T03:40:23;18.10;;;9.13;;
5428;SDS011;2737;52.386;9.980;2022-12-16T03:42:52;21.20;;;9.50;;
5428;SDS011;2737;52.386;9.980;2022-12-16T03:45:22;22.70;;;10.17;;
5428;SDS011;2737;52.386;9.980;2022-12-16T03:47:55;18.50;;;9.23;;
5428;SDS011;2737;52.386;9.980;2022-12-16T03:50:23;19.97;;;9.80;;
5428;SDS011;2737;52.386;9.980;2022-12-16T03:52:53;21.90;;;9.47;;
5428;SDS011;2737;52.386;9.980;2022-12-16T03:55:20;24.40;;;10.53;;
5428;SDS011;2737;52.386;9.980;2022-12-16T03:57:47;25.30;;;10.80;;
5428;SDS011;2737;52.386;9.980;2022-12-16T04:00:15;22.60;;;11.03;;
5428;SDS011;2737;52.386;9.980;2022-12-16T04:02:42;32.63;;;10.70;;
5428;SDS011;2737;52.386;9.980;2022-12-16T04:05:11;24.07;;;10.60;;
5428;SDS011;2737;52.386;9.980;2022-12-16T04:07:39;23.43;;;10.83;;
5428;SDS011;2737;52.386;9.980;2022-12-16T04:10:06;29.07;;;11.20;;
5428;SDS011;2737;52.386;9.980;2022-12-16T04:12:34;24.17;;;11.10;;
5428;SDS011;2737;52.386;9.980;2022-12-16T04:15:19;28.17;;;10.80;;
5428;SDS011;2737;52.386;9.980;2022-12-16T04:17:59;24.90;;;11.00;;
5428;SDS011;2737;52.386;9.980;2022-12-16T04:20:46;21.97;;;10.13;;
5428;SDS011;2737;52.386;9.980;2022-12-16T04:23:34;27.40;;;11.37;;
5428;SDS011;2737;52.386;9.980;2022-12-16T04:26:20;30.23;;;12.67;;
5428;SDS011;2737;52.386;9.980;2022-12-16T04:28:48;23.50;;;11.03;;
5428;SDS011;2737;52.386;9.980;2022-12-16T04:31:15;21.13;;;10.00;;
5428;SDS011;2737;52.386;9.980;2022-12-16T04:33:42;23.23;;;10.87;;
5428;SDS011;2737;52.386;9.980;2022-12-16T04:36:27;25.00;;;10.93;;
5428;SDS011;2737;52.386;9.980;2022-12-16T04:39:12;22.57;;;10.60;;
5428;SDS011;2737;52.386;9.980;2022-12-16T04:41:56;21.10;;;10.30;;
5428;SDS011;2737;52.386;9.980;2022-12-16T04:44:41;22.73;;;10.37;;
5428;SDS011;2737;52.386;9.980;2022-12-16T04:47:25;26.90;;;11.07;;
5428;SDS011;2737;52.386;9.980;2022-12-16T04:50:10;21.50;;;10.60;;
5428;SDS011;2737;52.386;9.980;2022-12-16T04:52:56;26.87;;;11.07;;
5428;SDS011;2737;52.386;9.980;2022-12-16T04:55:37;24.90;;;10.80;;
5428;SDS011;2737;52.386;9.980;2022-12-16T04:58:22;26.53;;;10.70;;
5428;SDS011;2737;52.386;9.980;2022-12-16T05:01:06;21.53;;;8.97;;
5428;SDS011;2737;52.386;9.980;2022-12-16T05:03:51;20.17;;;9.47;;
5428;SDS011;2737;52.386;9.980;2022-12-16T05:06:35;19.90;;;10.10;;
5428;SDS011;2737;52.386;9.980;2022-12-16T05:09:21;32.07;;;11.70;;
5428;SDS011;2737;52.386;9.980;2022-12-16T05:12:05;28.20;;;12.37;;
5428;SDS011;2737;52.386;9.980;2022-12-16T05:14:50;23.30;;;10.80;;
5428;SDS011;2737;52.386;9.980;2022-12-16T05:17:34;30.30;;;12.57;;
5428;SDS011;2737;52.386;9.980;2022-12-16T05:20:18;22.73;;;11.53;;
5428;SDS011;2737;52.386;9.980;2022-12-16T05:23:02;27.70;;;12.87;;
5428;SDS011;2737;52.386;9.980;2022-12-16T05:25:47;22.60;;;11.23;;
5428;SDS011;2737;52.386;9.980;2022-12-16T05:28:31;26.23;;;11.97;;
5428;SDS011;2737;52.386;9.980;2022-12-16T05:31:16;35.53;;;13.97;;
5428;SDS011;2737;52.386;9.980;2022-12-16T05:34:00;30.63;;;13.33;;
5428;SDS011;2737;52.386;9.980;2022-12-16T05:36:45;30.33;;;14.53;;
5428;SDS011;2737;52.386;9.980;2022-12-16T05:39:29;31.93;;;13.50;;
5428;SDS011;2737;52.386;9.980;2022-12-16T05:42:15;33.50;;;13.57;;
5428;SDS011;2737;52.386;9.980;2022-12-16T05:45:00;31.90;;;13.93;;
5428;SDS011;2737;52.386;9.980;2022-12-16T05:47:46;28.50;;;12.13;;
5428;SDS011;2737;52.386;9.980;2022-12-16T05:50:31;29.67;;;12.87;;
5428;SDS011;2737;52.386;9.980;2022-12-16T05:53:16;31.40;;;13.93;;
5428;SDS011;2737;52.386;9.980;2022-12-16T05:56:00;33.17;;;13.30;;
5428;SDS011;2737;52.386;9.980;2022-12-16T05:58:46;28.33;;;12.93;;
5428;SDS011;2737;52.386;9.980;2022-12-16T06:01:30;32.07;;;12.40;;
5428;SDS011;2737;52.386;9.980;2022-12-16T06:04:15;27.90;;;11.93;;
5428;SDS011;2737;52.386;9.980;2022-12-16T06:06:59;30.73;;;10.70;;
5428;SDS011;2737;52.386;9.980;2022-12-16T06:09:44;23.77;;;10.27;;
5428;SDS011;2737;52.386;9.980;2022-12-16T06:12:28;22.60;;;10.87;;
5428;SDS011;2737;52.386;9.980;2022-12-16T06:15:14;22.47;;;10.60;;
5428;SDS011;2737;52.386;9.980;2022-12-16T06:18:10;20.70;;;9.33;;
5428;SDS011;2737;52.386;9.980;2022-12-16T06:20:55;25.30;;;10.63;;
5428;SDS011;2737;52.386;9.980;2022-12-16T06:23:36;25.80;;;10.90;;
5428;SDS011;2737;52.386;9.980;2022-12-16T06:26:20;19.50;;;10.47;;
5428;SDS011;2737;52.386;9.980;2022-12-16T06:29:06;23.53;;;10.30;;
5428;SDS011;2737;52.386;9.980;2022-12-16T06:31:53;35.37;;;14.27;;
5428;SDS011;2737;52.386;9.980;2022-12-16T06:34:37;42.27;;;15.17;;
5428;SDS011;2737;52.386;9.980;2022-12-16T06:37:22;27.70;;;13.33;;
5428;SDS011;2737;52.386;9.980;2022-12-16T06:40:06;26.23;;;11.80;;
5428;SDS011;2737;52.386;9.980;2022-12-16T06:42:52;34.60;;;14.30;;
5428;SDS011;2737;52.386;9.980;2022-12-16T06:45:36;29.23;;;12.30;;
5428;SDS011;2737;52.386;9.980;2022-12-16T06:48:22;30.97;;;12.60;;
5428;SDS011;2737;52.386;9.980;2022-12-16T06:51:06;30.20;;;12.33;;
5428;SDS011;2737;52.386;9.980;2022-12-16T06:53:51;27.33;;;12.50;;
5428;SDS011;2737;52.386;9.980;2022-12-16T06:56:35;29.03;;;11.63;;
5428;SDS011;2737;52.386;9.980;2022-12-16T06:59:20;25.13;;;11.50;;
5428;SDS011;2737;52.386;9.980;2022-12-16T07:02:06;25.50;;;12.13;;
5428;SDS011;2737;52.386;9.980;2022-12-16T07:04:53;22.80;;;12.30;;
5428;SDS011;2737;52.386;9.980;2022-12-16T07:07:38;26.40;;;11.77;;
5428;SDS011;2737;52.386;9.980;2022-12-16T07:10:37;25.27;;;11.40;;
5428;SDS011;2737;52.386;9.980;2022-12-16T07:13:21;31.10;;;12.00;;
5428;SDS011;2737;52.386;9.980;2022-12-16T07:16:05;33.87;;;13.90;;
5428;SDS011;2737;52.386;9.980;2022-12-16T07:18:50;38.37;;;14.53;;
5428;SDS011;2737;52.386;9.980;2022-12-16T07:21:36;31.73;;;13.77;;
5428;SDS011;2737;52.386;9.980;2022-12-16T07:24:20;28.13;;;11.57;;
5428;SDS011;2737;52.386;9.980;2022-12-16T07:27:04;24.50;;;11.03;;
5428;SDS011;2737;52.386;9.980;2022-12-16T07:29:49;26.50;;;11.70;;
5428;SDS011;2737;52.386;9.980;2022-12-16T07:32:33;35.60;;;14.53;;
5428;SDS011;2737;52.386;9.980;2022-12-16T07:35:18;40.97;;;17.40;;
5428;SDS011;2737;52.386;9.980;2022-12-16T07:38:04;38.27;;;16.40;;
5428;SDS011;2737;52.386;9.980;2022-12-16T07:40:48;25.33;;;13.27;;
5428;SDS011;2737;52.386;9.980;2022-12-16T07:43:32;27.93;;;12.80;;
5428;SDS011;2737;52.386;9.980;2022-12-16T07:46:17;32.40;;;13.20;;
5428;SDS011;2737;52.386;9.980;2022-12-16T07:49:01;27.43;;;12.83;;
5428;SDS011;2737;52.386;9.980;2022-12-16T07:51:46;30.40;;;12.70;;
5428;SDS011;2737;52.386;9.980;2022-12-16T07:54:32;35.93;;;14.40;;
5428;SDS011;2737;52.386;9.980;2022-12-16T07:57:16;29.87;;;14.37;;
5428;SDS011;2737;52.386;9.980;2022-12-16T08:00:00;39.87;;;16.07;;
5428;SDS011;2737;52.386;9.980;2022-12-16T08:02:45;38.20;;;16.17;;
5428;SDS011;2737;52.386;9.980;2022-12-16T08:05:35;48.70;;;20.17;;
5428;SDS011;2737;52.386;9.980;2022-12-16T08:08:20;49.23;;;19.20;;
5428;SDS011;2737;52.386;9.980;2022-12-16T08:11:06;46.23;;;20.37;;
5428;SDS011;2737;52.386;9.980;2022-12-16T08:13:50;36.00;;;15.90;;
5428;SDS011;2737;52.386;9.980;2022-12-16T08:16:35;46.67;;;18.00;;
5428;SDS011;2737;52.386;9.980;2022-12-16T08:19:19;42.87;;;19.60;;
5428;SDS011;2737;52.386;9.980;2022-12-16T08:22:03;40.83;;;17.67;;
5428;SDS011;2737;52.386;9.980;2022-12-16T08:24:48;47.17;;;19.43;;
5428;SDS011;2737;52.386;9.980;2022-12-16T08:27:34;42.50;;;17.90;;
5428;SDS011;2737;52.386;9.980;2022-12-16T08:30:18;46.23;;;18.20;;
5428;SDS011;2737;52.386;9.980;2022-12-16T08:33:03;36.03;;;18.33;;
5428;SDS011;2737;52.386;9.980;2022-12-16T08:35:47;38.07;;;16.70;;
5428;SDS011;2737;52.386;9.980;2022-12-16T08:38:32;41.23;;;16.60;;
5428;SDS011;2737;52.386;9.980;2022-12-16T08:41:16;42.73;;;17.53;;
5428;SDS011;2737;52.386;9.980;2022-12-16T08:44:02;37.63;;;16.20;;
5428;SDS011;2737;52.386;9.980;2022-12-16T08:46:47;34.13;;;14.60;;
5428;SDS011;2737;52.386;9.980;2022-12-16T08:49:31;40.00;;;16.50;;
5428;SDS011;2737;52.386;9.980;2022-12-16T08:52:16;39.63;;;16.93;;
5428;SDS011;2737;52.386;9.980;2022-12-16T08:55:12;42.57;;;21.03;;
5428;SDS011;2737;52.386;9.980;2022-12-16T08:57:56;64.67;;;30.27;;
5428;SDS011;2737;52.386;9.980;2022-12-16T09:00:43;46.77;;;19.50;;
5428;SDS011;2737;52.386;9.980;2022-12-16T09:03:28;34.57;;;16.90;;
5428;SDS011;2737;52.386;9.980;2022-12-16T09:06:13;29.93;;;14.97;;
5428;SDS011;2737;52.386;9.980;2022-12-16T09:09:12;45.53;;;16.17;;
5428;SDS011;2737;52.386;9.980;2022-12-16T09:11:56;34.53;;;15.83;;
5428;SDS011;2737;52.386;9.980;2022-12-16T09:14:41;39.73;;;17.70;;
5428;SDS011;2737;52.386;9.980;2022-12-16T09:17:26;44.60;;;20.33;;
5428;SDS011;2737;52.386;9.980;2022-12-16T09:20:25;37.83;;;14.70;;
5428;SDS011;2737;52.386;9.980;2022-12-16T09:23:10;47.30;;;16.57;;
5428;SDS011;2737;52.386;9.980;2022-12-16T09:25:54;37.30;;;16.63;;
5428;SDS011;2737;52.386;9.980;2022-12-16T09:28:39;70.07;;;26.53;;
5428;SDS011;2737;52.386;9.980;2022-12-16T09:31:23;41.53;;;16.93;;
5428;SDS011;2737;52.386;9.980;2022-12-16T09:34:09;39.50;;;16.20;;
5428;SDS011;2737;52.386;9.980;2022-12-16T09:36:53;38.97;;;16.10;;
5428;SDS011;2737;52.386;9.980;2022-12-16T09:39:37;39.00;;;16.67;;
5428;SDS011;2737;52.386;9.980;2022-12-16T09:42:24;42.03;;;19.33;;
5428;SDS011;2737;52.386;9.980;2022-12-16T09:45:14;41.33;;;16.40;;
5428;SDS011;2737;52.386;9.980;2022-12-16T09:48:08;42.50;;;18.57;;
5428;SDS011;2737;52.386;9.980;2022-12-16T09:51:07;40.77;;;18.27;;
5428;SDS011;2737;52.386;9.980;2022-12-16T09:53:54;43.13;;;18.30;;
5428;SDS011;2737;52.386;9.980;2022-12-16T09:56:39;46.93;;;17.90;;
5428;SDS011;2737;52.386;9.980;2022-12-16T09:59:26;40.47;;;19.00;;
5428;SDS011;2737;52.386;9.980;2022-12-16T10:02:14;37.93;;;18.73;;
5428;SDS011;2737;52.386;9.980;2022-12-16T10:05:01;44.10;;;20.43;;
5428;SDS011;2737;52.386;9.980;2022-12-16T10:07:51;32.23;;;16.17;;
5428;SDS011;2737;52.386;9.980;2022-12-16T10:10:46;47.30;;;19.00;;
5428;SDS011;2737;52.386;9.980;2022-12-16T10:13:39;37.30;;;17.93;;
5428;SDS011;2737;52.386;9.980;2022-12-16T10:16:33;42.53;;;18.43;;
5428;SDS011;2737;52.386;9.980;2022-12-16T10:19:27;43.83;;;18.50;;
5428;SDS011;2737;52.386;9.980;2022-12-16T10:22:22;41.57;;;19.70;;
5428;SDS011;2737;52.386;9.980;2022-12-16T10:25:14;33.80;;;17.27;;
5428;SDS011;2737;52.386;9.980;2022-12-16T10:28:04;40.63;;;19.40;;
5428;SDS011;2737;52.386;9.980;2022-12-16T10:30:59;40.40;;;19.90;;
5428;SDS011;2737;52.386;9.980;2022-12-16T10:33:44;50.87;;;20.80;;
5428;SDS011;2737;52.386;9.980;2022-12-16T10:36:33;40.80;;;19.67;;
5428;SDS011;2737;52.386;9.980;2022-12-16T10:39:22;44.23;;;19.67;;
5428;SDS011;2737;52.386;9.980;2022-12-16T10:42:14;45.23;;;21.53;;
5428;SDS011;2737;52.386;9.980;2022-12-16T10:45:03;43.47;;;20.10;;
5428;SDS011;2737;52.386;9.980;2022-12-16T10:47:57;45.13;;;17.70;;
5428;SDS011;2737;52.386;9.980;2022-12-16T10:50:41;41.97;;;18.33;;
5428;SDS011;2737;52.386;9.980;2022-12-16T10:53:26;39.03;;;18.10;;
5428;SDS011;2737;52.386;9.980;2022-12-16T10:56:16;31.90;;;17.30;;
5428;SDS011;2737;52.386;9.980;2022-12-16T10:59:22;38.20;;;19.53;;
5428;SDS011;2737;52.386;9.980;2022-12-16T11:02:16;35.77;;;17.40;;
5428;SDS011;2737;52.386;9.980;2022-12-16T11:05:04;35.80;;;18.60;;
5428;SDS011;2737;52.386;9.980;2022-12-16T11:08:20;36.90;;;19.13;;
5428;SDS011;2737;52.386;9.980;2022-12-16T11:11:11;43.67;;;20.60;;
5428;SDS011;2737;52.386;9.980;2022-12-16T11:14:07;37.17;;;18.20;;
5428;SDS011;2737;52.386;9.980;2022-12-16T11:17:17;34.53;;;17.80;;
5428;SDS011;2737;52.386;9.980;2022-12-16T11:23:16;37.10;;;16.87;;
5428;SDS011;2737;52.386;9.980;2022-12-16T11:26:02;30.37;;;16.00;;
5428;SDS011;2737;52.386;9.980;2022-12-16T11:29:02;36.20;;;16.83;;
5428;SDS011;2737;52.386;9.980;2022-12-16T11:31:49;45.83;;;17.50;;
5428;SDS011;2737;52.386;9.980;2022-12-16T11:34:41;35.63;;;18.67;;
5428;SDS011;2737;52.386;9.980;2022-12-16T11:37:29;42.60;;;18.63;;
5428;SDS011;2737;52.386;9.980;2022-12-16T11:40:15;48.63;;;20.33;;
5428;SDS011;2737;52.386;9.980;2022-12-16T11:43:01;44.00;;;18.87;;
5428;SDS011;2737;52.386;9.980;2022-12-16T11:45:47;37.27;;;18.97;;
5428;SDS011;2737;52.386;9.980;2022-12-16T11:48:35;43.77;;;18.80;;
5428;SDS011;2737;52.386;9.980;2022-12-16T11:51:27;36.53;;;18.00;;
5428;SDS011;2737;52.386;9.980;2022-12-16T11:54:16;44.00;;;19.80;;
5428;SDS011;2737;52.386;9.980;2022-12-16T11:57:06;40.20;;;19.57;;
5428;SDS011;2737;52.386;9.980;2022-12-16T12:00:16;52.23;;;19.83;;
5428;SDS011;2737;52.386;9.980;2022-12-16T12:03:03;62.27;;;29.23;;
5428;SDS011;2737;52.386;9.980;2022-12-16T12:05:52;47.73;;;20.70;;
5428;SDS011;2737;52.386;9.980;2022-12-16T12:08:59;39.93;;;21.33;;
5428;SDS011;2737;52.386;9.980;2022-12-16T12:11:50;53.70;;;22.17;;
5428;SDS011;2737;52.386;9.980;2022-12-16T12:14:40;46.33;;;21.87;;
5428;SDS011;2737;52.386;9.980;2022-12-16T12:17:31;49.07;;;21.60;;
5428;SDS011;2737;52.386;9.980;2022-12-16T12:20:35;41.50;;;19.87;;
5428;SDS011;2737;52.386;9.980;2022-12-16T12:23:37;49.23;;;22.03;;
5428;SDS011;2737;52.386;9.980;2022-12-16T12:26:31;46.37;;;23.60;;
5428;SDS011;2737;52.386;9.980;2022-12-16T12:29:18;46.73;;;22.57;;
5428;SDS011;2737;52.386;9.980;2022-12-16T12:32:14;43.93;;;21.20;;
5428;SDS011;2737;52.386;9.980;2022-12-16T12:35:07;45.10;;;22.07;;
5428;SDS011;2737;52.386;9.980;2022-12-16T12:38:02;58.33;;;25.93;;
5428;SDS011;2737;52.386;9.980;2022-12-16T12:40:52;48.07;;;21.60;;
5428;SDS011;2737;52.386;9.980;2022-12-16T12:43:46;44.27;;;20.87;;
5428;SDS011;2737;52.386;9.980;2022-12-16T12:46:39;39.70;;;20.57;;
5428;SDS011;2737;52.386;9.980;2022-12-16T12:49:29;46.40;;;23.80;;
5428;SDS011;2737;52.386;9.980;2022-12-16T12:52:24;46.53;;;22.47;;
5428;SDS011;2737;52.386;9.980;2022-12-16T12:55:20;46.90;;;21.70;;
5428;SDS011;2737;52.386;9.980;2022-12-16T12:58:19;49.33;;;22.40;;
5428;SDS011;2737;52.386;9.980;2022-12-16T13:01:06;42.80;;;21.30;;
5428;SDS011;2737;52.386;9.980;2022-12-16T13:03:53;55.17;;;23.63;;
5428;SDS011;2737;52.386;9.980;2022-12-16T13:06:43;39.57;;;21.13;;
5428;SDS011;2737;52.386;9.980;2022-12-16T13:09:29;43.73;;;21.53;;
5428;SDS011;2737;52.386;9.980;2022-12-16T13:12:19;42.73;;;22.67;;
5428;SDS011;2737;52.386;9.980;2022-12-16T13:15:18;46.10;;;21.60;;
5428;SDS011;2737;52.386;9.980;2022-12-16T13:18:26;41.77;;;21.40;;
5428;SDS011;2737;52.386;9.980;2022-12-16T13:24:39;44.33;;;20.80;;
5428;SDS011;2737;52.386;9.980;2022-12-16T13:27:44;44.27;;;21.23;;
5428;SDS011;2737;52.386;9.980;2022-12-16T13:30:32;50.23;;;21.50;;
5428;SDS011;2737;52.386;9.980;2022-12-16T13:33:28;51.83;;;21.37;;
5428;SDS011;2737;52.386;9.980;2022-12-16T13:36:14;40.60;;;21.80;;
5428;SDS011;2737;52.386;9.980;2022-12-16T13:39:18;43.10;;;21.27;;
5428;SDS011;2737;52.386;9.980;2022-12-16T13:42:25;43.33;;;20.80;;
5428;SDS011;2737;52.386;9.980;2022-12-16T13:45:31;41.03;;;19.77;;
5428;SDS011;2737;52.386;9.980;2022-12-16T13:54:53;40.00;;;21.13;;
5428;SDS011;2737;52.386;9.980;2022-12-16T13:57:51;51.00;;;24.00;;
5428;SDS011;2737;52.386;9.980;2022-12-16T14:00:38;62.10;;;27.90;;
5428;SDS011;2737;52.386;9.980;2022-12-16T14:03:28;45.50;;;22.90;;
5428;SDS011;2737;52.386;9.980;2022-12-16T14:06:24;37.97;;;19.63;;
5428;SDS011;2737;52.386;9.980;2022-12-16T14:12:15;41.30;;;20.67;;
5428;SDS011;2737;52.386;9.980;2022-12-16T14:15:23;39.10;;;19.20;;
5428;SDS011;2737;52.386;9.980;2022-12-16T14:18:12;36.90;;;20.20;;
5428;SDS011;2737;52.386;9.980;2022-12-16T14:21:12;41.50;;;20.37;;
5428;SDS011;2737;52.386;9.980;2022-12-16T14:24:06;42.43;;;20.27;;
5428;SDS011;2737;52.386;9.980;2022-12-16T14:26:56;41.30;;;19.43;;
5428;SDS011;2737;52.386;9.980;2022-12-16T14:29:47;40.47;;;18.40;;
5428;SDS011;2737;52.386;9.980;2022-12-16T14:32:32;48.03;;;20.63;;
5428;SDS011;2737;52.386;9.980;2022-12-16T14:35:23;39.30;;;18.40;;
5428;SDS011;2737;52.386;9.980;2022-12-16T14:38:22;41.13;;;19.93;;
5428;SDS011;2737;52.386;9.980;2022-12-16T14:41:13;36.13;;;18.33;;
5428;SDS011;2737;52.386;9.980;2022-12-16T14:44:00;36.23;;;19.80;;
5428;SDS011;2737;52.386;9.980;2022-12-16T14:46:48;40.87;;;20.23;;
5428;SDS011;2737;52.386;9.980;2022-12-16T14:49:30;39.03;;;19.93;;
5428;SDS011;2737;52.386;9.980;2022-12-16T14:52:16;40.90;;;21.30;;
5428;SDS011;2737;52.386;9.980;2022-12-16T14:55:09;42.87;;;19.90;;
5428;SDS011;2737;52.386;9.980;2022-12-16T14:58:04;40.87;;;19.63;;
5428;SDS011;2737;52.386;9.980;2022-12-16T15:00:52;38.97;;;19.10;;
5428;SDS011;2737;52.386;9.980;2022-12-16T15:03:40;47.70;;;22.43;;
5428;SDS011;2737;52.386;9.980;2022-12-16T15:06:27;36.40;;;18.67;;
5428;SDS011;2737;52.386;9.980;2022-12-16T15:09:19;39.20;;;19.47;;
5428;SDS011;2737;52.386;9.980;2022-12-16T15:12:07;41.53;;;19.60;;
5428;SDS011;2737;52.386;9.980;2022-12-16T15:14:55;44.07;;;20.60;;
5428;SDS011;2737;52.386;9.980;2022-12-16T15:17:43;43.03;;;20.87;;
5428;SDS011;2737;52.386;9.980;2022-12-16T15:20:32;41.47;;;20.67;;
5428;SDS011;2737;52.386;9.980;2022-12-16T15:23:19;42.20;;;20.87;;
5428;SDS011;2737;52.386;9.980;2022-12-16T15:26:06;38.90;;;19.10;;
5428;SDS011;2737;52.386;9.980;2022-12-16T15:28:52;31.50;;;19.03;;
5428;SDS011;2737;52.386;9.980;2022-12-16T15:31:39;46.17;;;20.70;;
5428;SDS011;2737;52.386;9.980;2022-12-16T15:34:31;42.67;;;21.30;;
5428;SDS011;2737;52.386;9.980;2022-12-16T15:37:20;44.80;;;20.70;;
5428;SDS011;2737;52.386;9.980;2022-12-16T15:40:23;36.23;;;19.07;;
5428;SDS011;2737;52.386;9.980;2022-12-16T15:43:19;40.33;;;20.93;;
5428;SDS011;2737;52.386;9.980;2022-12-16T15:46:14;38.10;;;19.10;;
5428;SDS011;2737;52.386;9.980;2022-12-16T15:49:01;44.53;;;21.10;;
5428;SDS011;2737;52.386;9.980;2022-12-16T15:51:49;40.47;;;20.20;;
5428;SDS011;2737;52.386;9.980;2022-12-16T15:54:47;43.97;;;20.27;;
5428;SDS011;2737;52.386;9.980;2022-12-16T15:57:34;40.17;;;22.70;;
5428;SDS011;2737;52.386;9.980;2022-12-16T16:00:22;71.17;;;33.57;;
5428;SDS011;2737;52.386;9.980;2022-12-16T16:03:18;62.50;;;32.60;;
5428;SDS011;2737;52.386;9.980;2022-12-16T16:06:11;80.17;;;38.40;;
5428;SDS011;2737;52.386;9.980;2022-12-16T16:09:00;73.43;;;36.73;;
5428;SDS011;2737;52.386;9.980;2022-12-16T16:11:50;69.87;;;32.17;;
5428;SDS011;2737;52.386;9.980;2022-12-16T16:14:35;60.50;;;30.00;;
5428;SDS011;2737;52.386;9.980;2022-12-16T16:17:20;60.93;;;29.47;;
5428;SDS011;2737;52.386;9.980;2022-12-16T16:20:06;56.80;;;27.80;;
5428;SDS011;2737;52.386;9.980;2022-12-16T16:22:59;59.87;;;28.80;;
5428;SDS011;2737;52.386;9.980;2022-12-16T16:25:43;48.90;;;25.20;;
5428;SDS011;2737;52.386;9.980;2022-12-16T16:28:28;38.33;;;21.23;;
5428;SDS011;2737;52.386;9.980;2022-12-16T16:31:13;45.30;;;22.13;;
5428;SDS011;2737;52.386;9.980;2022-12-16T16:33:57;46.27;;;23.10;;
5428;SDS011;2737;52.386;9.980;2022-12-16T16:36:54;40.47;;;21.53;;
5428;SDS011;2737;52.386;9.980;2022-12-16T16:39:41;40.90;;;21.60;;
5428;SDS011;2737;52.386;9.980;2022-12-16T16:42:26;41.67;;;20.87;;
5428;SDS011;2737;52.386;9.980;2022-12-16T16:45:11;44.53;;;22.07;;